Terminal Aerodrome Forecast
Issued by NWS Upton, NY

Home | Current Version | Previous Version | Text Only | Print | Product List | Glossary On
Versions: 1 2 3 4 5 6 7 8 9 10 11 12 13 14 15 16 17 18 19 20 21 22 23 24 25 26
000
FTUS41 KOKX 161400 AAB
TAFISP
TAF AMD
KISP 161435Z 1615/1712 33008KT 4SM -SHRA BKN020 OVC040
      TEMPO 1615/1616 2SM -SHRA
     FM161600 30007KT P6SM BKN040 BKN100
     FM162100 26007KT P6SM SCT050 SCT150
     FM170200 34007KT P6SM FEW050 SCT250
     FM170500 35005KT P6SM SKC=

USA.gov is the U.S. government's official web portal to all federal, state and local government web resources and services.